createdAt,value
2023-04-25T00:00:42.621Z,8.90
2023-04-25T00:01:42.614Z,8.78
2023-04-25T00:02:42.798Z,8.86
2023-04-25T00:03:42.799Z,8.90
2023-04-25T00:04:42.797Z,8.87
2023-04-25T00:05:42.632Z,8.91
2023-04-25T00:06:42.561Z,8.88
2023-04-25T00:07:42.572Z,8.91
2023-04-25T00:08:42.542Z,8.83
2023-04-25T00:09:42.521Z,8.86
2023-04-25T00:10:42.516Z,8.86
2023-04-25T00:11:42.512Z,8.87
2023-04-25T00:12:42.495Z,8.73
2023-04-25T00:13:42.478Z,8.81
2023-04-25T00:14:42.469Z,8.93
2023-04-25T00:15:42.768Z,8.84
2023-04-25T00:16:42.556Z,8.93
2023-04-25T00:17:42.480Z,8.81
2023-04-25T00:18:42.411Z,8.73
2023-04-25T00:19:42.464Z,8.76
2023-04-25T00:20:42.390Z,8.83
2023-04-25T00:21:42.398Z,8.87
2023-04-25T00:22:42.417Z,8.88
2023-04-25T00:23:42.356Z,8.75
2023-04-25T00:24:42.363Z,8.83
2023-04-25T00:25:42.355Z,8.78
2023-04-25T00:26:42.349Z,8.88
2023-04-25T00:27:42.352Z,8.88
2023-04-25T00:28:42.301Z,8.76
2023-04-25T00:29:42.303Z,8.81
2023-04-25T00:30:42.276Z,8.76
2023-04-25T00:31:42.336Z,8.75
2023-04-25T00:32:42.316Z,8.86
2023-04-25T00:33:42.265Z,8.73
2023-04-25T00:34:42.229Z,8.72
2023-04-25T00:35:42.251Z,8.72
2023-04-25T00:36:42.216Z,8.58
2023-04-25T00:37:42.208Z,8.60
2023-04-25T00:38:42.194Z,8.72
2023-04-25T00:39:42.173Z,8.60
2023-04-25T00:40:42.169Z,8.60
2023-04-25T00:41:42.166Z,8.65
2023-04-25T00:42:42.163Z,8.55
2023-04-25T00:43:42.158Z,8.62
2023-04-25T00:44:42.112Z,8.55
2023-04-25T00:45:42.121Z,8.57
2023-04-25T00:46:42.123Z,8.45
2023-04-25T00:47:42.119Z,8.45
2023-04-25T00:48:42.116Z,8.47
2023-04-25T00:49:42.071Z,8.45
2023-04-25T00:50:42.071Z,8.45
2023-04-25T00:51:42.089Z,8.35
2023-04-25T00:52:42.034Z,8.35
2023-04-25T00:53:42.031Z,8.29
2023-04-25T00:54:42.015Z,8.28
2023-04-25T00:55:42.005Z,8.32
2023-04-25T00:56:41.989Z,8.28
2023-04-25T00:57:42.002Z,8.37
2023-04-25T00:58:42.739Z,8.26
2023-04-25T00:59:41.952Z,8.18
2023-04-25T01:00:42.027Z,8.30
2023-04-25T01:01:41.925Z,8.20
2023-04-25T01:02:42.107Z,8.17
2023-04-25T01:03:47.518Z,8.14
2023-04-25T01:04:42.898Z,8.26
2023-04-25T01:05:41.893Z,8.21
2023-04-25T01:06:41.874Z,8.18
2023-04-25T01:07:41.902Z,8.21
2023-04-25T01:08:41.839Z,8.11
2023-04-25T01:09:41.844Z,8.18
2023-04-25T01:10:41.817Z,8.11
2023-04-25T01:11:41.819Z,8.17
2023-04-25T01:12:41.808Z,8.11
2023-04-25T01:13:41.795Z,8.12
2023-04-25T01:14:41.780Z,8.04
2023-04-25T01:15:41.766Z,8.07
2023-04-25T01:16:41.795Z,8.10
2023-04-25T01:17:41.762Z,8.00
2023-04-25T01:18:41.737Z,8.03
2023-04-25T01:19:41.730Z,8.07
2023-04-25T01:20:41.709Z,8.00
2023-04-25T01:21:41.696Z,7.96
2023-04-25T01:22:41.761Z,7.99
2023-04-25T01:23:41.746Z,8.07
2023-04-25T01:24:41.662Z,7.97
2023-04-25T01:25:41.668Z,7.89
2023-04-25T01:26:41.635Z,7.96
2023-04-25T01:27:41.642Z,7.93
2023-04-25T01:28:41.623Z,7.93
2023-04-25T01:29:41.618Z,7.85
2023-04-25T01:30:41.601Z,7.87
2023-04-25T01:31:41.650Z,7.87
2023-04-25T01:32:41.651Z,7.89
2023-04-25T01:33:41.597Z,7.89
2023-04-25T01:34:41.586Z,7.82
2023-04-25T01:35:41.538Z,7.79
2023-04-25T01:36:41.529Z,7.84
2023-04-25T01:37:41.535Z,7.81
2023-04-25T01:38:41.532Z,7.77
2023-04-25T01:39:41.516Z,7.75
2023-04-25T01:40:41.481Z,7.78
2023-04-25T01:41:41.491Z,7.89
2023-04-25T01:42:41.455Z,7.82
2023-04-25T01:43:41.473Z,7.77
2023-04-25T01:44:41.434Z,7.75
2023-04-25T01:45:41.451Z,7.74
2023-04-25T01:46:41.482Z,7.71
2023-04-25T01:47:41.425Z,7.79
2023-04-25T01:48:41.450Z,7.75
2023-04-25T01:49:41.390Z,7.78
2023-04-25T01:50:41.374Z,7.78
2023-04-25T01:51:41.370Z,7.75
2023-04-25T01:52:41.343Z,7.62
2023-04-25T01:53:41.358Z,7.69
2023-04-25T01:54:41.364Z,7.53
2023-04-25T01:55:41.346Z,7.66
2023-04-25T01:56:41.370Z,7.67
2023-04-25T01:57:41.305Z,7.56
2023-04-25T01:58:41.282Z,7.66
2023-04-25T01:59:41.282Z,7.66
2023-04-25T02:00:41.249Z,7.56
2023-04-25T02:01:41.268Z,7.52
2023-04-25T02:02:41.358Z,7.60
2023-04-25T02:03:41.383Z,7.58
2023-04-25T02:04:41.502Z,7.52
2023-04-25T02:05:41.211Z,7.55
2023-04-25T02:06:41.197Z,7.63
2023-04-25T02:07:41.183Z,7.62
2023-04-25T02:08:41.162Z,7.52
2023-04-25T02:09:41.168Z,7.44
2023-04-25T02:10:41.183Z,7.50
2023-04-25T02:11:41.167Z,7.52
2023-04-25T02:12:41.121Z,7.45
2023-04-25T02:13:41.119Z,7.47
2023-04-25T02:14:41.121Z,7.41
2023-04-25T02:15:41.132Z,7.45
2023-04-25T02:16:41.217Z,7.52
2023-04-25T02:17:41.074Z,7.44
2023-04-25T02:18:41.068Z,7.37
2023-04-25T02:19:41.061Z,7.42
2023-04-25T02:20:41.024Z,7.42
2023-04-25T02:21:41.034Z,7.50
2023-04-25T02:22:41.016Z,7.40
2023-04-25T02:23:41.010Z,7.35
2023-04-25T02:24:41.021Z,7.40
2023-04-25T02:25:40.976Z,7.38
2023-04-25T02:26:40.967Z,7.42
2023-04-25T02:27:40.973Z,7.32
2023-04-25T02:28:40.942Z,7.29
2023-04-25T02:29:40.939Z,7.35
2023-04-25T02:30:40.927Z,7.31
2023-04-25T02:31:40.931Z,7.37
2023-04-25T02:32:40.982Z,7.40
2023-04-25T02:33:40.895Z,7.35
2023-04-25T02:34:40.894Z,7.44
2023-04-25T02:35:40.865Z,7.40
2023-04-25T02:36:40.857Z,7.37
2023-04-25T02:37:40.850Z,7.40
2023-04-25T02:38:40.824Z,7.37
2023-04-25T02:39:40.839Z,7.31
2023-04-25T02:40:40.835Z,7.55
2023-04-25T02:41:40.800Z,7.56
2023-04-25T02:42:40.805Z,7.47
2023-04-25T02:43:40.794Z,7.47
2023-04-25T02:44:40.805Z,7.45
2023-04-25T02:45:40.757Z,7.56
2023-04-25T02:46:40.768Z,7.41
2023-04-25T02:47:40.785Z,7.52
2023-04-25T02:48:40.726Z,7.55
2023-04-25T02:49:40.712Z,7.50
2023-04-25T02:50:40.717Z,7.52
2023-04-25T02:51:40.677Z,7.52
2023-04-25T02:52:40.676Z,7.60
2023-04-25T02:53:40.652Z,7.71
2023-04-25T02:54:40.649Z,7.56
2023-04-25T02:55:40.655Z,7.60
2023-04-25T02:56:40.623Z,7.59
2023-04-25T02:57:40.618Z,7.60
2023-04-25T02:58:40.599Z,7.71
2023-04-25T02:59:40.632Z,7.53
2023-04-25T03:00:40.625Z,7.60
2023-04-25T03:01:40.560Z,7.56
2023-04-25T03:02:40.607Z,7.62
2023-04-25T03:03:40.588Z,7.58
2023-04-25T03:04:40.633Z,7.52
2023-04-25T03:05:40.569Z,7.58
2023-04-25T03:06:40.520Z,7.62
2023-04-25T03:07:40.516Z,7.75
2023-04-25T03:08:40.503Z,7.72
2023-04-25T03:09:40.468Z,7.67
2023-04-25T03:10:40.504Z,7.59
2023-04-25T03:11:40.448Z,7.53
2023-04-25T03:12:40.452Z,7.71
2023-04-25T03:13:40.425Z,7.71
2023-04-25T03:14:40.419Z,7.74
2023-04-25T03:15:40.456Z,7.71
2023-04-25T03:16:40.505Z,7.72
2023-04-25T03:17:40.422Z,7.71
2023-04-25T03:18:40.370Z,7.67
2023-04-25T03:19:40.356Z,7.71
2023-04-25T03:20:40.386Z,7.62
2023-04-25T03:21:40.335Z,7.62
2023-04-25T03:22:40.340Z,7.66
2023-04-25T03:23:40.337Z,7.55
2023-04-25T03:24:40.304Z,7.71
2023-04-25T03:25:40.325Z,7.77
2023-04-25T03:26:40.315Z,7.71
2023-04-25T03:27:40.287Z,7.77
2023-04-25T03:28:40.255Z,7.63
2023-04-25T03:29:40.243Z,7.67
2023-04-25T03:30:40.235Z,7.71
2023-04-25T03:31:40.269Z,7.81
2023-04-25T03:32:40.228Z,7.75
2023-04-25T03:33:40.215Z,7.78
2023-04-25T03:34:40.188Z,7.81
2023-04-25T03:35:40.174Z,7.75
2023-04-25T03:36:41.759Z,7.75
2023-04-25T03:37:40.166Z,7.77
2023-04-25T03:38:40.150Z,7.74
2023-04-25T03:39:40.151Z,7.78
2023-04-25T03:40:40.145Z,7.77
2023-04-25T03:41:40.124Z,7.74
2023-04-25T03:42:40.101Z,7.77
2023-04-25T03:43:40.102Z,7.75
2023-04-25T03:44:40.077Z,7.78
2023-04-25T03:45:40.157Z,7.81
2023-04-25T03:46:40.087Z,7.74
2023-04-25T03:47:40.128Z,7.79
2023-04-25T03:48:40.047Z,7.78
2023-04-25T03:49:40.016Z,7.84
2023-04-25T03:50:40.036Z,7.94
2023-04-25T03:51:39.992Z,7.90
2023-04-25T03:52:40.039Z,7.81
2023-04-25T03:53:39.988Z,7.90
2023-04-25T03:54:39.963Z,7.96
2023-04-25T03:55:41.815Z,7.77
2023-04-25T03:56:39.963Z,7.79
2023-04-25T03:57:39.936Z,7.84
2023-04-25T03:58:39.958Z,7.89
2023-04-25T03:59:39.936Z,7.82
2023-04-25T04:00:39.897Z,7.85
2023-04-25T04:01:39.895Z,7.81
2023-04-25T04:02:40.649Z,7.92
2023-04-25T04:03:40.153Z,7.89
2023-04-25T04:04:40.253Z,7.82
2023-04-25T04:05:39.906Z,7.82
2023-04-25T04:06:39.836Z,7.93
2023-04-25T04:07:39.813Z,7.92
2023-04-25T04:08:39.820Z,7.94
2023-04-25T04:09:39.790Z,7.79
2023-04-25T04:10:39.860Z,7.85
2023-04-25T04:11:39.766Z,7.82
2023-04-25T04:12:39.770Z,7.92
2023-04-25T04:13:39.803Z,7.84
2023-04-25T04:14:39.736Z,7.87
2023-04-25T04:15:39.769Z,7.77
2023-04-25T04:16:39.730Z,7.81
2023-04-25T04:17:39.746Z,7.93
2023-04-25T04:18:39.714Z,7.81
2023-04-25T04:19:39.723Z,7.82
2023-04-25T04:20:39.669Z,7.96
2023-04-25T04:21:39.667Z,7.89
2023-04-25T04:22:39.667Z,7.85
2023-04-25T04:23:40.006Z,7.93
2023-04-25T04:24:39.652Z,7.85
2023-04-25T04:25:39.624Z,7.90
2023-04-25T04:26:39.632Z,7.85
2023-04-25T04:27:39.584Z,7.93
2023-04-25T04:28:39.578Z,7.97
2023-04-25T04:29:39.599Z,7.99
2023-04-25T04:30:39.567Z,7.94
2023-04-25T04:31:39.615Z,7.93
2023-04-25T04:32:39.556Z,8.03
2023-04-25T04:33:39.529Z,8.07
2023-04-25T04:34:39.524Z,8.02
2023-04-25T04:35:39.538Z,8.04
2023-04-25T04:36:39.537Z,7.97
2023-04-25T04:37:39.473Z,7.93
2023-04-25T04:38:41.823Z,7.89
2023-04-25T04:39:39.467Z,8.00
2023-04-25T04:40:39.470Z,7.92
2023-04-25T04:41:39.464Z,7.97
2023-04-25T04:42:39.459Z,8.10
2023-04-25T04:43:39.406Z,7.97
2023-04-25T04:44:39.413Z,8.08
2023-04-25T04:45:39.386Z,7.96
2023-04-25T04:46:39.412Z,7.97
2023-04-25T04:47:39.437Z,8.04
2023-04-25T04:48:39.370Z,8.08
2023-04-25T04:49:39.353Z,7.94
2023-04-25T04:50:39.342Z,7.92
2023-04-25T04:51:39.384Z,8.07
2023-04-25T04:52:39.330Z,7.99
2023-04-25T04:53:39.319Z,8.00
2023-04-25T04:54:39.298Z,7.92
2023-04-25T04:55:39.275Z,8.04
2023-04-25T04:56:39.329Z,8.07
2023-04-25T04:57:39.255Z,8.08
2023-04-25T04:58:39.250Z,8.04
2023-04-25T04:59:39.265Z,8.10
2023-04-25T05:00:39.277Z,8.03
2023-04-25T05:01:39.212Z,8.00
2023-04-25T05:02:39.251Z,8.00
2023-04-25T05:03:39.434Z,8.03
2023-04-25T05:04:39.240Z,8.08
2023-04-25T05:05:39.153Z,8.03
2023-04-25T05:06:39.243Z,7.92
2023-04-25T05:07:39.154Z,8.04
2023-04-25T05:08:39.175Z,8.04
2023-04-25T05:09:39.124Z,8.04
2023-04-25T05:10:39.114Z,7.96
2023-04-25T05:11:39.116Z,7.99
2023-04-25T05:12:39.121Z,8.03
2023-04-25T05:13:39.076Z,7.93
2023-04-25T05:14:39.066Z,7.99
2023-04-25T05:15:39.042Z,7.85
2023-04-25T05:16:39.171Z,7.90
2023-04-25T05:17:39.058Z,7.99
2023-04-25T05:18:39.023Z,7.93
2023-04-25T05:19:38.996Z,8.03
2023-04-25T05:20:38.990Z,7.92
2023-04-25T05:21:38.989Z,8.02
2023-04-25T05:22:39.829Z,8.04
2023-04-25T05:23:38.976Z,8.04
2023-04-25T05:24:38.951Z,8.07
2023-04-25T05:25:38.934Z,8.08
2023-04-25T05:26:38.952Z,8.00
2023-04-25T05:27:38.922Z,8.08
2023-04-25T05:28:38.916Z,8.14
2023-04-25T05:29:38.927Z,8.12
2023-04-25T05:30:38.889Z,8.11
2023-04-25T05:31:38.910Z,8.12
2023-04-25T05:32:38.972Z,8.12
2023-04-25T05:33:38.862Z,8.04
2023-04-25T05:34:38.848Z,8.10
2023-04-25T05:35:38.832Z,8.17
2023-04-25T05:36:38.822Z,8.26
2023-04-25T05:37:38.803Z,8.17
2023-04-25T05:38:38.798Z,8.32
2023-04-25T05:39:38.822Z,8.21
2023-04-25T05:40:38.771Z,8.20
2023-04-25T05:41:38.769Z,8.18
2023-04-25T05:42:38.764Z,8.30
2023-04-25T05:43:38.730Z,8.35
2023-04-25T05:44:38.714Z,8.44
2023-04-25T05:45:38.713Z,8.44
2023-04-25T05:46:38.782Z,8.35
2023-04-25T05:47:38.790Z,8.30
2023-04-25T05:48:38.667Z,8.33
2023-04-25T05:49:38.687Z,8.47
2023-04-25T05:50:38.781Z,8.39
2023-04-25T05:51:39.653Z,8.47
2023-04-25T05:52:38.639Z,8.54
2023-04-25T05:53:38.614Z,8.55
2023-04-25T05:54:38.624Z,8.60
2023-04-25T05:55:38.605Z,8.53
2023-04-25T05:56:38.604Z,8.50
2023-04-25T05:57:38.571Z,8.57
2023-04-25T05:58:38.576Z,8.58
2023-04-25T05:59:38.552Z,8.76
2023-04-25T06:00:38.549Z,8.75
2023-04-25T06:01:38.549Z,8.79
2023-04-25T06:02:38.696Z,8.73
2023-04-25T06:03:38.878Z,8.90
2023-04-25T06:04:38.834Z,8.81
2023-04-25T06:05:38.544Z,8.87
2023-04-25T06:06:38.462Z,8.84
2023-04-25T06:07:38.470Z,9.09
2023-04-25T06:08:38.443Z,9.16
2023-04-25T06:09:38.433Z,9.16
2023-04-25T06:10:38.434Z,9.34
2023-04-25T06:11:38.435Z,9.42
2023-04-25T06:12:38.414Z,9.58
2023-04-25T06:13:38.390Z,9.75
2023-04-25T06:14:38.424Z,9.93
2023-04-25T06:15:38.396Z,9.93
2023-04-25T06:16:38.354Z,10.06
2023-04-25T06:17:38.381Z,10.19
2023-04-25T06:18:38.336Z,10.42
2023-04-25T06:19:38.310Z,10.30
2023-04-25T06:20:38.303Z,10.53
2023-04-25T06:21:38.288Z,10.65
2023-04-25T06:22:38.309Z,10.76
2023-04-25T06:23:38.288Z,10.94
2023-04-25T06:24:38.252Z,11.10
2023-04-25T06:25:38.240Z,11.35
2023-04-25T06:26:38.232Z,11.53
2023-04-25T06:27:38.258Z,11.67
2023-04-25T06:28:38.223Z,11.65
2023-04-25T06:29:38.215Z,11.74
2023-04-25T06:30:38.201Z,11.68
2023-04-25T06:31:38.181Z,11.49
2023-04-25T06:32:38.201Z,11.41
2023-04-25T06:33:38.148Z,11.50
2023-04-25T06:34:38.163Z,11.36
2023-04-25T06:35:38.135Z,11.35
2023-04-25T06:36:38.118Z,11.36
2023-04-25T06:37:38.163Z,11.28
2023-04-25T06:38:38.107Z,11.27
2023-04-25T06:39:40.576Z,11.24
2023-04-25T06:40:38.093Z,11.34
2023-04-25T06:41:38.068Z,11.34
2023-04-25T06:42:38.107Z,11.39
2023-04-25T06:43:38.070Z,11.47
2023-04-25T06:44:38.042Z,11.39
2023-04-25T06:45:38.041Z,11.43
2023-04-25T06:46:38.043Z,11.31
2023-04-25T06:47:38.072Z,11.34
2023-04-25T06:48:38.010Z,11.25
2023-04-25T06:49:37.965Z,11.36
2023-04-25T06:50:37.972Z,11.35
2023-04-25T06:51:37.968Z,11.35
2023-04-25T06:52:37.956Z,11.38
2023-04-25T06:53:37.960Z,11.43
2023-04-25T06:54:37.919Z,11.32
2023-04-25T06:55:37.931Z,11.47
2023-04-25T06:56:37.899Z,11.56
2023-04-25T06:57:37.896Z,11.64
2023-04-25T06:58:37.883Z,11.72
2023-04-25T06:59:37.902Z,11.89
2023-04-25T07:00:37.858Z,11.94
2023-04-25T07:01:37.838Z,12.20
2023-04-25T07:02:38.004Z,12.34
2023-04-25T07:03:37.925Z,12.41
2023-04-25T07:04:38.060Z,12.74
2023-04-25T07:05:37.791Z,12.75
2023-04-25T07:06:37.795Z,12.82
2023-04-25T07:07:37.797Z,12.93
2023-04-25T07:08:37.765Z,12.99
2023-04-25T07:09:37.756Z,12.93
2023-04-25T07:10:37.762Z,12.96
2023-04-25T07:11:37.905Z,13.04
2023-04-25T07:12:37.763Z,13.03
2023-04-25T07:13:37.720Z,13.07
2023-04-25T07:14:37.708Z,13.06
2023-04-25T07:15:37.716Z,12.92
2023-04-25T07:16:37.754Z,12.87
2023-04-25T07:17:37.760Z,12.75
2023-04-25T07:18:37.661Z,12.59
2023-04-25T07:19:37.639Z,12.62
2023-04-25T07:20:37.638Z,12.51
2023-04-25T07:21:37.651Z,12.41
2023-04-25T07:22:37.619Z,12.34
2023-04-25T07:23:37.631Z,12.31
2023-04-25T07:24:37.596Z,12.21
2023-04-25T07:25:37.567Z,12.27
2023-04-25T07:26:37.553Z,12.23
2023-04-25T07:27:37.595Z,12.23
2023-04-25T07:28:37.534Z,12.34
2023-04-25T07:29:37.526Z,12.31
2023-04-25T07:30:37.506Z,12.29
2023-04-25T07:31:37.579Z,12.37
2023-04-25T07:32:37.547Z,12.46
2023-04-25T07:33:37.494Z,12.49
2023-04-25T07:34:37.462Z,12.52
2023-04-25T07:35:37.470Z,12.52
2023-04-25T07:36:37.435Z,12.59
2023-04-25T07:37:37.518Z,12.67
2023-04-25T07:38:37.421Z,12.56
2023-04-25T07:39:37.437Z,12.63
2023-04-25T07:40:37.405Z,12.75
2023-04-25T07:41:37.391Z,12.71
2023-04-25T07:42:37.580Z,12.57
2023-04-25T07:43:37.382Z,12.62
2023-04-25T07:44:37.352Z,12.75
2023-04-25T07:45:37.389Z,12.77
2023-04-25T07:46:37.330Z,12.74
2023-04-25T07:47:37.398Z,12.79
2023-04-25T07:48:37.308Z,12.84
2023-04-25T07:49:37.323Z,12.89
2023-04-25T07:50:37.285Z,12.92
2023-04-25T07:51:37.271Z,12.89
2023-04-25T07:52:37.286Z,12.95
2023-04-25T07:53:37.763Z,12.99
2023-04-25T07:54:37.240Z,13.04
2023-04-25T07:55:37.241Z,13.15
2023-04-25T07:56:49.167Z,13.18
2023-04-25T07:57:38.233Z,13.12
2023-04-25T07:58:37.192Z,13.37
2023-04-25T07:59:37.180Z,13.47
2023-04-25T08:00:37.177Z,13.51
2023-04-25T08:01:37.156Z,13.58
2023-04-25T08:02:37.662Z,13.52
2023-04-25T08:03:37.516Z,13.80
2023-04-25T08:04:37.367Z,13.83
2023-04-25T08:05:37.264Z,13.80
2023-04-25T08:06:37.227Z,13.92
2023-04-25T08:07:37.124Z,13.94
2023-04-25T08:08:37.072Z,14.13
2023-04-25T08:09:37.086Z,14.24
2023-04-25T08:10:37.069Z,14.25
2023-04-25T08:11:37.052Z,14.35
2023-04-25T08:12:37.041Z,14.42
2023-04-25T08:13:37.052Z,14.61
2023-04-25T08:14:37.159Z,14.60
2023-04-25T08:15:37.059Z,14.64
2023-04-25T08:16:37.016Z,14.61
2023-04-25T08:17:36.990Z,14.72
2023-04-25T08:18:36.984Z,14.69
2023-04-25T08:19:36.989Z,14.72
2023-04-25T08:20:36.965Z,14.81
2023-04-25T08:21:36.946Z,14.80
2023-04-25T08:22:36.914Z,14.80
2023-04-25T08:23:36.958Z,14.68
2023-04-25T08:24:38.813Z,14.71
2023-04-25T08:25:36.895Z,14.64
2023-04-25T08:26:36.884Z,14.54
2023-04-25T08:27:36.864Z,14.53
2023-04-25T08:28:36.904Z,14.42
2023-04-25T08:29:36.868Z,14.29
2023-04-25T08:30:36.822Z,14.46
2023-04-25T08:31:36.844Z,14.43
2023-04-25T08:32:36.863Z,14.39
2023-04-25T08:33:36.833Z,14.39
2023-04-25T08:34:36.790Z,14.38
2023-04-25T08:35:36.836Z,14.49
2023-04-25T08:36:39.623Z,14.67
2023-04-25T08:37:36.764Z,14.90
2023-04-25T08:38:36.746Z,15.03
2023-04-25T08:39:36.726Z,15.03
2023-04-25T08:40:36.752Z,15.27
2023-04-25T08:41:36.717Z,15.57
2023-04-25T08:42:36.688Z,15.60
2023-04-25T08:43:36.698Z,15.46
2023-04-25T08:44:36.684Z,15.79
2023-04-25T08:45:36.662Z,15.68
2023-04-25T08:46:36.751Z,15.72
2023-04-25T08:47:36.687Z,15.86
2023-04-25T08:48:36.638Z,15.88
2023-04-25T08:49:36.629Z,15.74
2023-04-25T08:50:36.623Z,15.76
2023-04-25T08:51:36.623Z,15.79
2023-04-25T08:52:36.588Z,15.79
2023-04-25T08:53:36.585Z,15.60
2023-04-25T08:54:38.436Z,15.57
2023-04-25T08:55:36.581Z,15.20
2023-04-25T08:56:36.527Z,15.01
2023-04-25T08:57:36.546Z,14.78
2023-04-25T08:58:36.531Z,14.64
2023-04-25T08:59:39.056Z,14.60
2023-04-25T09:00:36.505Z,14.39
2023-04-25T09:01:37.495Z,14.37
2023-04-25T09:02:36.564Z,14.29
2023-04-25T09:03:36.542Z,14.12
2023-04-25T09:04:36.450Z,13.98
2023-04-25T09:05:36.491Z,14.02
2023-04-25T09:06:36.462Z,13.92
2023-04-25T09:07:36.615Z,13.76
2023-04-25T09:08:36.405Z,13.71
2023-04-25T09:09:36.419Z,13.63
2023-04-25T09:10:36.393Z,13.71
2023-04-25T09:11:36.383Z,13.52
2023-04-25T09:12:36.376Z,13.41
2023-04-25T09:13:36.384Z,13.38
2023-04-25T09:14:36.346Z,13.25
2023-04-25T09:15:36.329Z,13.03
2023-04-25T09:16:37.711Z,13.11
2023-04-25T09:17:36.493Z,13.07
2023-04-25T09:18:36.316Z,12.97
2023-04-25T09:20:40.348Z,12.84
2023-04-25T09:21:37.265Z,12.82
2023-04-25T09:22:36.248Z,12.75
2023-04-25T09:23:36.404Z,12.60
2023-04-25T09:24:36.235Z,12.60
2023-04-25T09:25:36.247Z,12.46
2023-04-25T09:26:36.202Z,12.48
2023-04-25T09:27:36.192Z,12.56
2023-04-25T09:28:36.160Z,12.44
2023-04-25T09:29:36.173Z,12.33
2023-04-25T09:30:36.143Z,12.24
2023-04-25T09:31:36.245Z,12.27
2023-04-25T09:32:36.236Z,12.21
2023-04-25T09:33:36.131Z,12.16
2023-04-25T09:34:36.113Z,12.19
2023-04-25T09:35:36.108Z,12.12
2023-04-25T09:36:36.085Z,12.12
2023-04-25T09:37:36.080Z,12.15
2023-04-25T09:38:36.080Z,12.15
2023-04-25T09:39:36.143Z,12.11
2023-04-25T09:40:36.040Z,12.09
2023-04-25T09:41:36.022Z,12.19
2023-04-25T09:42:36.025Z,12.12
2023-04-25T09:43:36.024Z,12.21
2023-04-25T09:44:35.990Z,12.24
2023-04-25T09:45:35.971Z,12.26
2023-04-25T09:46:36.051Z,12.33
2023-04-25T09:47:35.973Z,12.38
2023-04-25T09:48:35.962Z,12.33
2023-04-25T09:49:35.952Z,12.41
2023-04-25T09:50:35.929Z,12.37
2023-04-25T09:51:35.915Z,12.37
2023-04-25T09:52:35.911Z,12.42
2023-04-25T09:53:35.917Z,12.29
2023-04-25T09:54:35.898Z,12.20
2023-04-25T09:55:35.969Z,12.20
2023-04-25T09:56:35.844Z,12.12
2023-04-25T09:57:35.877Z,12.20
2023-04-25T09:58:35.822Z,12.12
2023-04-25T09:59:35.828Z,11.94
2023-04-25T10:00:35.820Z,11.94
2023-04-25T10:01:35.831Z,12.04
2023-04-25T10:02:35.852Z,11.90
2023-04-25T10:03:36.094Z,12.04
2023-04-25T10:04:35.805Z,12.11
2023-04-25T10:05:35.748Z,12.16
2023-04-25T10:06:35.781Z,12.21
2023-04-25T10:07:35.739Z,12.29
2023-04-25T10:08:35.740Z,12.39
2023-04-25T10:09:35.723Z,12.30
2023-04-25T10:10:35.687Z,12.31
2023-04-25T10:11:35.729Z,12.37
2023-04-25T10:12:35.720Z,12.46
2023-04-25T10:13:35.677Z,12.29
2023-04-25T10:14:35.654Z,12.16
2023-04-25T10:15:37.458Z,12.06
2023-04-25T10:16:35.621Z,12.02
2023-04-25T10:17:35.716Z,11.97
2023-04-25T10:18:35.596Z,11.90
2023-04-25T10:19:35.604Z,11.75
2023-04-25T10:20:35.587Z,11.74
2023-04-25T10:21:35.581Z,11.61
2023-04-25T10:22:35.578Z,11.62
2023-04-25T10:23:35.698Z,11.59
2023-04-25T10:24:35.586Z,11.54
2023-04-25T10:25:35.541Z,11.54
2023-04-25T10:26:35.517Z,11.47
2023-04-25T10:27:35.530Z,11.31
2023-04-25T10:28:35.562Z,11.34
2023-04-25T10:29:35.529Z,11.32
2023-04-25T10:30:35.541Z,11.25
2023-04-25T10:31:35.591Z,11.31
2023-04-25T10:32:35.479Z,11.29
2023-04-25T10:33:35.490Z,11.28
2023-04-25T10:34:35.430Z,11.35
2023-04-25T10:35:35.436Z,11.29
2023-04-25T10:36:35.402Z,11.32
2023-04-25T10:37:35.397Z,11.43
2023-04-25T10:38:35.394Z,11.34
2023-04-25T10:39:35.387Z,11.39
2023-04-25T10:40:35.390Z,11.47
2023-04-25T10:41:35.373Z,11.57
2023-04-25T10:42:35.334Z,11.50
2023-04-25T10:43:35.350Z,11.52
2023-04-25T10:44:35.339Z,11.50
2023-04-25T10:45:35.312Z,11.67
2023-04-25T10:46:35.338Z,11.68
2023-04-25T10:47:35.334Z,11.90
2023-04-25T10:48:35.266Z,12.01
2023-04-25T10:49:35.274Z,12.30
2023-04-25T10:50:35.290Z,12.56
2023-04-25T10:51:51.593Z,12.64
2023-04-25T10:52:36.207Z,12.85
2023-04-25T10:53:35.228Z,13.07
2023-04-25T10:54:35.206Z,13.06
2023-04-25T10:55:35.201Z,13.11
2023-04-25T10:56:35.177Z,13.15
2023-04-25T10:57:35.179Z,13.15
2023-04-25T10:58:35.154Z,13.11
2023-04-25T10:59:35.181Z,13.09
2023-04-25T11:00:48.019Z,13.02
2023-04-25T11:01:36.186Z,13.06
2023-04-25T11:02:35.245Z,12.93
2023-04-25T11:03:35.355Z,12.81
2023-04-25T11:04:35.479Z,12.78
2023-04-25T11:06:36.061Z,12.69
2023-04-25T11:07:35.069Z,12.49
2023-04-25T11:08:35.027Z,12.46
2023-04-25T11:09:35.020Z,12.44
2023-04-25T11:10:35.055Z,12.31
2023-04-25T11:11:35.005Z,12.29
2023-04-25T11:12:34.983Z,12.15
2023-04-25T11:13:35.004Z,12.21
2023-04-25T11:14:34.981Z,12.19
2023-04-25T11:14:37.734Z,12.78
2023-04-25T11:15:34.994Z,12.20
2023-04-25T11:16:35.002Z,12.05
2023-04-25T11:17:35.151Z,12.08
2023-04-25T11:18:34.932Z,12.02
2023-04-25T11:19:34.909Z,12.05
2023-04-25T11:20:34.908Z,12.06
2023-04-25T11:21:34.908Z,12.05
2023-04-25T11:22:34.903Z,11.99
2023-04-25T11:23:34.861Z,11.94
2023-04-25T11:24:34.868Z,11.97
2023-04-25T11:25:36.579Z,11.89
2023-04-25T11:26:35.440Z,11.93
2023-04-25T11:27:34.843Z,11.90
2023-04-25T11:28:34.829Z,11.75
2023-04-25T11:29:34.809Z,11.80
2023-04-25T11:30:34.807Z,11.86
2023-04-25T11:31:34.839Z,11.87
2023-04-25T11:32:34.956Z,11.85
2023-04-25T11:33:34.758Z,12.05
2023-04-25T11:34:34.741Z,11.99
2023-04-25T11:35:34.797Z,12.02
2023-04-25T11:36:34.749Z,12.05
2023-04-25T11:37:34.715Z,12.20
2023-04-25T11:38:34.692Z,12.16
2023-04-25T11:39:34.707Z,12.31
2023-04-25T11:40:34.682Z,12.42
2023-04-25T11:41:34.671Z,12.44
2023-04-25T11:42:34.671Z,12.52
2023-04-25T11:43:35.202Z,12.59
2023-04-25T11:44:34.648Z,12.69
2023-04-25T11:45:34.656Z,12.77
2023-04-25T11:46:34.727Z,12.74
2023-04-25T11:47:34.756Z,12.85
2023-04-25T11:48:34.592Z,13.02
2023-04-25T11:49:34.562Z,13.11
2023-04-25T11:50:34.575Z,13.33
2023-04-25T11:51:34.574Z,13.59
2023-04-25T11:52:34.534Z,13.80
2023-04-25T11:53:34.529Z,13.87
2023-04-25T11:54:34.512Z,13.98
2023-04-25T11:55:34.507Z,14.17
2023-04-25T11:56:34.511Z,14.31
2023-04-25T11:57:34.489Z,14.31
2023-04-25T11:58:34.892Z,14.34
2023-04-25T11:59:34.467Z,14.32
2023-04-25T12:00:34.502Z,14.46
2023-04-25T12:01:44.773Z,14.38
2023-04-25T12:02:35.570Z,14.38
2023-04-25T12:03:34.688Z,14.34
2023-04-25T12:04:34.675Z,14.39
2023-04-25T12:05:34.947Z,14.34
2023-04-25T12:06:34.424Z,14.29
2023-04-25T12:07:34.360Z,14.21
2023-04-25T12:08:34.380Z,14.37
2023-04-25T12:09:34.355Z,14.25
2023-04-25T12:10:34.362Z,14.44
2023-04-25T12:11:34.334Z,14.61
2023-04-25T12:12:34.304Z,14.78
2023-04-25T12:13:34.318Z,14.90
2023-04-25T12:14:34.393Z,15.05
2023-04-25T12:15:34.280Z,15.13
2023-04-25T12:16:34.441Z,15.38
2023-04-25T12:17:34.278Z,15.46
2023-04-25T12:18:34.253Z,15.49
2023-04-25T12:19:34.242Z,15.57
2023-04-25T12:20:34.231Z,15.68
2023-04-25T12:21:38.752Z,15.75
2023-04-25T12:22:35.195Z,15.72
2023-04-25T12:23:34.195Z,15.68
2023-04-25T12:24:35.305Z,15.79
2023-04-25T12:25:34.245Z,16.04
2023-04-25T12:26:34.183Z,16.01
2023-04-25T12:27:34.131Z,16.18
2023-04-25T12:28:34.144Z,16.48
2023-04-25T12:29:41.978Z,16.63
2023-04-25T12:30:35.102Z,16.63
2023-04-25T12:31:34.180Z,16.77
2023-04-25T12:32:34.118Z,16.78
2023-04-25T12:33:34.075Z,16.73
2023-04-25T12:34:34.080Z,16.70
2023-04-25T12:35:34.080Z,16.68
2023-04-25T12:36:34.029Z,16.41
2023-04-25T12:37:34.069Z,16.48
2023-04-25T12:38:34.021Z,16.40
2023-04-25T12:39:34.013Z,16.33
2023-04-25T12:40:34.021Z,16.25
2023-04-25T12:41:33.990Z,16.16
2023-04-25T12:42:33.998Z,16.04
2023-04-25T12:43:34.004Z,16.00
2023-04-25T12:44:33.957Z,15.92
2023-04-25T12:45:33.957Z,15.78
2023-04-25T12:46:33.968Z,15.68
2023-04-25T12:47:33.980Z,15.70
2023-04-25T12:48:33.919Z,15.56
2023-04-25T12:49:33.881Z,15.48
2023-04-25T12:50:33.885Z,15.39
2023-04-25T12:51:33.891Z,15.19
2023-04-25T12:52:33.865Z,15.08
2023-04-25T12:53:35.145Z,15.05
2023-04-25T12:54:33.827Z,14.95
2023-04-25T12:55:33.832Z,14.86
2023-04-25T12:56:33.825Z,14.88
2023-04-25T12:57:33.805Z,14.86
2023-04-25T12:58:33.782Z,14.78
2023-04-25T12:59:33.810Z,14.56
2023-04-25T13:00:33.784Z,14.56
2023-04-25T13:01:35.639Z,14.49
2023-04-25T13:02:33.954Z,14.37
2023-04-25T13:03:33.990Z,14.34
2023-04-25T13:04:33.847Z,14.14
2023-04-25T13:05:33.711Z,14.16